createdAt,value
2023-05-08T00:00:28.490Z,0.00
2023-05-08T00:01:28.396Z,0.00
2023-05-08T00:02:28.519Z,0.00
2023-05-08T00:03:28.488Z,0.00
2023-05-08T00:04:28.329Z,0.00
2023-05-08T00:05:28.263Z,0.00
2023-05-08T00:06:28.303Z,0.00
2023-05-08T00:07:28.201Z,0.00
2023-05-08T00:08:28.225Z,0.00
2023-05-08T00:09:28.152Z,0.00
2023-05-08T00:10:28.079Z,0.00
2023-05-08T00:11:28.051Z,0.00
2023-05-08T00:12:28.014Z,0.00
2023-05-08T00:13:28.107Z,0.00
2023-05-08T00:14:27.992Z,0.00
2023-05-08T00:15:27.920Z,0.00
2023-05-08T00:16:27.903Z,0.00
2023-05-08T00:17:27.908Z,0.00
2023-05-08T00:18:27.895Z,0.00
2023-05-08T00:19:28.756Z,0.00
2023-05-08T00:20:27.735Z,0.00
2023-05-08T00:21:27.697Z,0.00
2023-05-08T00:22:27.667Z,0.00
2023-05-08T00:23:27.625Z,0.00
2023-05-08T00:24:27.663Z,0.00
2023-05-08T00:25:27.570Z,0.00
2023-05-08T00:26:27.520Z,0.00
2023-05-08T00:27:27.489Z,0.00
2023-05-08T00:28:27.454Z,0.00
2023-05-08T00:29:27.424Z,0.00
2023-05-08T00:30:27.435Z,0.00
2023-05-08T00:31:27.418Z,0.00
2023-05-08T00:32:27.572Z,0.00
2023-05-08T00:33:27.342Z,0.00
2023-05-08T00:34:27.249Z,0.00
2023-05-08T00:35:27.271Z,0.00
2023-05-08T00:36:27.178Z,0.00
2023-05-08T00:37:27.204Z,0.00
2023-05-08T00:38:27.100Z,0.00
2023-05-08T00:39:27.140Z,0.00
2023-05-08T00:40:27.042Z,0.00
2023-05-08T00:41:26.996Z,0.00
2023-05-08T00:42:27.022Z,0.00
2023-05-08T00:43:26.925Z,0.00
2023-05-08T00:44:26.896Z,0.00
2023-05-08T00:45:26.875Z,0.00
2023-05-08T00:46:26.919Z,0.00
2023-05-08T00:47:27.799Z,0.00
2023-05-08T00:48:26.746Z,0.00
2023-05-08T00:49:26.746Z,0.00
2023-05-08T00:50:26.684Z,0.00
2023-05-08T00:51:26.647Z,0.00
2023-05-08T00:52:26.607Z,0.00
2023-05-08T00:53:26.643Z,0.00
2023-05-08T00:54:26.547Z,0.00
2023-05-08T00:55:26.506Z,0.00
2023-05-08T00:56:26.469Z,0.00
2023-05-08T00:57:26.466Z,0.00
2023-05-08T00:58:26.430Z,0.00
2023-05-08T00:59:27.266Z,0.00
2023-05-08T01:00:26.338Z,0.00
2023-05-08T01:01:26.434Z,0.00
2023-05-08T01:02:26.350Z,0.00
2023-05-08T01:03:26.281Z,0.00
2023-05-08T01:04:26.251Z,0.00
2023-05-08T01:05:26.158Z,0.00
2023-05-08T01:06:26.131Z,0.00
2023-05-08T01:07:26.105Z,0.00
2023-05-08T01:08:26.045Z,0.00
2023-05-08T01:09:26.016Z,0.00
2023-05-08T01:10:26.063Z,0.00
2023-05-08T01:11:25.978Z,0.00
2023-05-08T01:12:25.907Z,0.00
2023-05-08T01:13:26.001Z,0.00
2023-05-08T01:14:25.836Z,0.00
2023-05-08T01:15:25.894Z,0.00
2023-05-08T01:16:25.800Z,0.00
2023-05-08T01:17:25.756Z,0.00
2023-05-08T01:18:25.701Z,0.00
2023-05-08T01:19:25.676Z,0.00
2023-05-08T01:20:25.620Z,0.00
2023-05-08T01:21:25.639Z,0.00
2023-05-08T01:22:25.556Z,0.00
2023-05-08T01:23:25.512Z,0.00
2023-05-08T01:24:25.484Z,0.00
2023-05-08T01:25:25.456Z,0.00
2023-05-08T01:26:25.470Z,0.00
2023-05-08T01:27:25.379Z,0.00
2023-05-08T01:28:25.346Z,0.00
2023-05-08T01:29:25.312Z,0.00
2023-05-08T01:30:25.271Z,0.00
2023-05-08T01:31:25.299Z,0.00
2023-05-08T01:32:25.236Z,0.00
2023-05-08T01:33:25.239Z,0.00
2023-05-08T01:34:25.150Z,0.00
2023-05-08T01:35:25.095Z,0.00
2023-05-08T01:36:25.062Z,0.00
2023-05-08T01:37:25.068Z,0.00
2023-05-08T01:38:24.984Z,0.00
2023-05-08T01:39:24.956Z,0.00
2023-05-08T01:40:24.933Z,0.00
2023-05-08T01:41:24.890Z,0.00
2023-05-08T01:42:24.936Z,0.00
2023-05-08T01:43:24.830Z,0.00
2023-05-08T01:44:24.786Z,0.00
2023-05-08T01:45:24.753Z,0.00
2023-05-08T01:46:24.710Z,0.00
2023-05-08T01:47:24.752Z,0.00
2023-05-08T01:48:24.645Z,0.00
2023-05-08T01:49:24.600Z,0.00
2023-05-08T01:50:24.561Z,0.00
2023-05-08T01:51:24.554Z,0.00
2023-05-08T01:52:24.557Z,0.00
2023-05-08T01:53:24.464Z,0.00
2023-05-08T01:54:24.444Z,0.00
2023-05-08T01:55:24.391Z,0.00
2023-05-08T01:56:24.364Z,0.00
2023-05-08T01:57:24.323Z,0.00
2023-05-08T01:58:24.333Z,0.00
2023-05-08T01:59:24.254Z,0.00
2023-05-08T02:00:24.224Z,0.00
2023-05-08T02:01:24.264Z,0.00
2023-05-08T02:02:24.732Z,0.00
2023-05-08T02:03:24.117Z,0.00
2023-05-08T02:04:24.192Z,0.00
2023-05-08T02:05:24.047Z,0.00
2023-05-08T02:06:24.023Z,0.00
2023-05-08T02:07:24.052Z,0.00
2023-05-08T02:08:23.915Z,0.00
2023-05-08T02:09:23.910Z,0.00
2023-05-08T02:10:23.854Z,0.00
2023-05-08T02:11:23.817Z,0.00
2023-05-08T02:12:23.803Z,0.00
2023-05-08T02:13:23.881Z,0.00
2023-05-08T02:14:23.702Z,0.00
2023-05-08T02:15:23.673Z,0.00
2023-05-08T02:16:23.651Z,0.00
2023-05-08T02:17:23.634Z,0.00
2023-05-08T02:18:23.641Z,0.00
2023-05-08T02:19:23.545Z,0.00
2023-05-08T02:20:23.500Z,0.00
2023-05-08T02:21:23.460Z,0.00
2023-05-08T02:22:23.433Z,0.00
2023-05-08T02:23:23.399Z,0.00
2023-05-08T02:24:23.412Z,0.00
2023-05-08T02:25:23.320Z,0.00
2023-05-08T02:26:23.295Z,0.00
2023-05-08T02:27:23.249Z,0.00
2023-05-08T02:28:23.210Z,0.00
2023-05-08T02:29:23.255Z,0.00
2023-05-08T02:30:23.146Z,0.00
2023-05-08T02:31:23.138Z,0.00
2023-05-08T02:32:23.220Z,0.00
2023-05-08T02:33:23.026Z,0.00
2023-05-08T02:34:22.992Z,0.00
2023-05-08T02:35:23.019Z,0.00
2023-05-08T02:36:22.934Z,0.00
2023-05-08T02:37:22.894Z,0.00
2023-05-08T02:38:22.868Z,0.00
2023-05-08T02:39:22.818Z,0.00
2023-05-08T02:40:22.850Z,0.00
2023-05-08T02:41:22.750Z,4.00
2023-05-08T02:42:22.707Z,4.00
2023-05-08T02:43:22.687Z,4.00
2023-05-08T02:44:22.654Z,0.00
2023-05-08T02:45:22.661Z,0.00
2023-05-08T02:46:22.590Z,4.00
2023-05-08T02:47:22.551Z,4.00
2023-05-08T02:48:22.495Z,4.00
2023-05-08T02:49:22.458Z,4.00
2023-05-08T02:50:22.417Z,4.00
2023-05-08T02:51:22.441Z,4.00
2023-05-08T02:52:22.441Z,8.00
2023-05-08T02:53:22.321Z,4.00
2023-05-08T02:54:22.286Z,8.00
2023-05-08T02:55:22.259Z,12.00
2023-05-08T02:56:22.241Z,12.00
2023-05-08T02:57:22.229Z,12.00
2023-05-08T02:58:22.140Z,16.00
2023-05-08T02:59:22.104Z,16.00
2023-05-08T03:00:22.058Z,16.00
2023-05-08T03:01:22.045Z,20.00
2023-05-08T03:02:22.025Z,24.00
2023-05-08T03:03:22.116Z,28.00
2023-05-08T03:04:21.918Z,32.00
2023-05-08T03:05:21.892Z,40.00
2023-05-08T03:06:21.845Z,40.00
2023-05-08T03:07:21.862Z,52.00
2023-05-08T03:08:21.805Z,60.00
2023-05-08T03:09:21.754Z,60.00
2023-05-08T03:10:21.701Z,72.00
2023-05-08T03:11:21.724Z,80.00
2023-05-08T03:12:21.690Z,88.00
2023-05-08T03:13:21.629Z,100.00
2023-05-08T03:14:21.581Z,112.00
2023-05-08T03:15:21.556Z,124.00
2023-05-08T03:16:21.544Z,136.00
2023-05-08T03:17:21.494Z,148.00
2023-05-08T03:18:21.470Z,164.00
2023-05-08T03:19:23.105Z,176.00
2023-05-08T03:20:21.334Z,196.00
2023-05-08T03:21:21.306Z,216.00
2023-05-08T03:22:21.260Z,232.00
2023-05-08T03:23:21.290Z,252.00
2023-05-08T03:24:22.173Z,272.00
2023-05-08T03:25:21.166Z,296.00
2023-05-08T03:26:21.123Z,320.00
2023-05-08T03:27:21.084Z,348.00
2023-05-08T03:28:21.060Z,372.00
2023-05-08T03:29:21.360Z,400.00
2023-05-08T03:30:21.052Z,428.00
2023-05-08T03:31:21.015Z,460.00
2023-05-08T03:32:20.923Z,496.00
2023-05-08T03:33:20.868Z,528.00
2023-05-08T03:34:20.903Z,564.00
2023-05-08T03:35:20.803Z,600.00
2023-05-08T03:36:20.769Z,636.00
2023-05-08T03:37:20.726Z,676.00
2023-05-08T03:38:20.686Z,716.00
2023-05-08T03:39:20.665Z,756.00
2023-05-08T03:40:20.709Z,800.00
2023-05-08T03:41:20.606Z,844.00
2023-05-08T03:42:20.550Z,892.00
2023-05-08T03:43:20.520Z,944.00
2023-05-08T03:44:20.481Z,1000.00
2023-05-08T03:45:20.454Z,1056.00
2023-05-08T03:46:20.511Z,1104.00
2023-05-08T03:47:20.368Z,1152.00
2023-05-08T03:48:20.352Z,1292.00
2023-05-08T03:49:20.301Z,1592.00
2023-05-08T03:50:20.297Z,2000.00
2023-05-08T03:51:20.224Z,2476.00
2023-05-08T03:52:20.256Z,2756.00
2023-05-08T03:53:20.225Z,2888.00
2023-05-08T03:54:20.124Z,2780.00
2023-05-08T03:55:20.096Z,2724.00
2023-05-08T03:56:20.048Z,2992.00
2023-05-08T03:57:20.078Z,2948.00
2023-05-08T03:58:20.004Z,3180.00
2023-05-08T03:59:19.950Z,3336.00
2023-05-08T04:00:19.956Z,3292.00
2023-05-08T04:01:19.879Z,3168.00
2023-05-08T04:02:19.946Z,3220.00
2023-05-08T04:03:19.975Z,3544.00
2023-05-08T04:04:19.894Z,4352.00
2023-05-08T04:05:19.742Z,5732.00
2023-05-08T04:06:19.717Z,6812.00
2023-05-08T04:07:20.292Z,7256.00
2023-05-08T04:08:19.700Z,7560.00
2023-05-08T04:09:19.600Z,7456.00
2023-05-08T04:10:19.582Z,7308.00
2023-05-08T04:11:19.534Z,7292.00
2023-05-08T04:12:19.496Z,7032.00
2023-05-08T04:13:19.489Z,6408.00
2023-05-08T04:14:19.478Z,6204.00
2023-05-08T04:15:19.401Z,6248.00
2023-05-08T04:16:19.488Z,5836.00
2023-05-08T04:17:19.327Z,5544.00
2023-05-08T04:18:19.289Z,4476.00
2023-05-08T04:19:19.267Z,4284.00
2023-05-08T04:20:19.319Z,4908.00
2023-05-08T04:21:19.200Z,5504.00
2023-05-08T04:22:19.156Z,6320.00
2023-05-08T04:23:19.128Z,6920.00
2023-05-08T04:24:19.098Z,6952.00
2023-05-08T04:25:19.073Z,7052.00
2023-05-08T04:26:19.129Z,6628.00
2023-05-08T04:27:18.993Z,5796.00
2023-05-08T04:28:18.966Z,5728.00
2023-05-08T04:29:18.937Z,4964.00
2023-05-08T04:30:18.919Z,4284.00
2023-05-08T04:31:18.915Z,4192.00
2023-05-08T04:32:18.912Z,4264.00
2023-05-08T04:33:18.864Z,4480.00
2023-05-08T04:34:18.772Z,4316.00
2023-05-08T04:35:18.732Z,4352.00
2023-05-08T04:36:18.704Z,3780.00
2023-05-08T04:37:18.656Z,3916.00
2023-05-08T04:38:18.694Z,5740.00
2023-05-08T04:39:18.593Z,5908.00
2023-05-08T04:40:18.555Z,5512.00
2023-05-08T04:41:18.570Z,5360.00
2023-05-08T04:42:18.524Z,4924.00
2023-05-08T04:43:18.456Z,4904.00
2023-05-08T04:44:18.482Z,5132.00
2023-05-08T04:45:18.388Z,5768.00
2023-05-08T04:46:18.384Z,5260.00
2023-05-08T04:47:18.338Z,4700.00
2023-05-08T04:48:18.285Z,5648.00
2023-05-08T04:49:18.322Z,7340.00
2023-05-08T04:50:18.299Z,7208.00
2023-05-08T04:51:18.209Z,6352.00
2023-05-08T04:52:18.161Z,4824.00
2023-05-08T04:53:18.136Z,4440.00
2023-05-08T04:54:18.097Z,5216.00
2023-05-08T04:55:18.100Z,5628.00
2023-05-08T04:56:18.025Z,6432.00
2023-05-08T04:57:17.986Z,7316.00
2023-05-08T04:58:18.817Z,8928.00
2023-05-08T04:59:17.956Z,9884.00
2023-05-08T05:00:18.703Z,11396.00
2023-05-08T05:01:17.867Z,11884.00
2023-05-08T05:02:17.854Z,11132.00
2023-05-08T05:03:17.802Z,11952.00
2023-05-08T05:04:17.756Z,13524.00
2023-05-08T05:05:17.780Z,14848.00
2023-05-08T05:06:17.687Z,16224.00
2023-05-08T05:07:17.670Z,11568.00
2023-05-08T05:08:17.621Z,6916.00
2023-05-08T05:09:17.585Z,8740.00
2023-05-08T05:10:17.549Z,12304.00
2023-05-08T05:11:17.586Z,11732.00
2023-05-08T05:12:17.496Z,13780.00
2023-05-08T05:13:17.473Z,17440.00
2023-05-08T05:14:17.445Z,16896.00
2023-05-08T05:15:17.390Z,12520.00
2023-05-08T05:16:17.405Z,12264.00
2023-05-08T05:17:17.380Z,11616.00
2023-05-08T05:18:17.479Z,17760.00
2023-05-08T05:19:17.264Z,17888.00
2023-05-08T05:20:17.233Z,12312.00
2023-05-08T05:21:17.184Z,7844.00
2023-05-08T05:22:17.195Z,3864.00
2023-05-08T05:23:17.175Z,3868.00
2023-05-08T05:24:17.090Z,3884.00
2023-05-08T05:25:17.120Z,3976.00
2023-05-08T05:26:17.030Z,4104.00
2023-05-08T05:27:18.280Z,4448.00
2023-05-08T05:28:16.970Z,5064.00
2023-05-08T05:29:16.941Z,5564.00
2023-05-08T05:30:16.960Z,6104.00
2023-05-08T05:31:16.911Z,6180.00
2023-05-08T05:32:16.825Z,6024.00
2023-05-08T05:33:16.806Z,5760.00
2023-05-08T05:34:16.758Z,5000.00
2023-05-08T05:35:16.795Z,4312.00
2023-05-08T05:36:16.704Z,4272.00
2023-05-08T05:37:16.684Z,4340.00
2023-05-08T05:38:16.631Z,4492.00
2023-05-08T05:39:16.599Z,4388.00
2023-05-08T05:40:16.564Z,4168.00
2023-05-08T05:41:16.584Z,4016.00
2023-05-08T05:42:16.507Z,4016.00
2023-05-08T05:43:16.458Z,3976.00
2023-05-08T05:44:16.439Z,3976.00
2023-05-08T05:45:16.406Z,3988.00
2023-05-08T05:46:16.401Z,4024.00
2023-05-08T05:47:16.457Z,4012.00
2023-05-08T05:48:16.367Z,4024.00
2023-05-08T05:49:16.265Z,4036.00
2023-05-08T05:50:16.260Z,4032.00
2023-05-08T05:51:16.193Z,4080.00
2023-05-08T05:52:16.167Z,4040.00
2023-05-08T05:53:16.197Z,4056.00
2023-05-08T05:54:16.096Z,4040.00
2023-05-08T05:55:16.140Z,4076.00
2023-05-08T05:56:16.022Z,4068.00
2023-05-08T05:57:15.994Z,4064.00
2023-05-08T05:58:16.052Z,4112.00
2023-05-08T05:59:16.011Z,4080.00
2023-05-08T06:00:15.885Z,4092.00
2023-05-08T06:01:15.861Z,4132.00
2023-05-08T06:02:15.879Z,4104.00
2023-05-08T06:03:15.925Z,4128.00
2023-05-08T06:04:15.818Z,4108.00
2023-05-08T06:05:15.780Z,4124.00
2023-05-08T06:06:15.694Z,4116.00
2023-05-08T06:07:15.674Z,4116.00
2023-05-08T06:08:15.820Z,4148.00
2023-05-08T06:09:15.589Z,4188.00
2023-05-08T06:10:15.707Z,4140.00
2023-05-08T06:11:15.524Z,4132.00
2023-05-08T06:12:15.492Z,4140.00
2023-05-08T06:13:15.517Z,4152.00
2023-05-08T06:14:15.421Z,4180.00
2023-05-08T06:15:15.628Z,4192.00
2023-05-08T06:16:15.449Z,4180.00
2023-05-08T06:17:15.369Z,4180.00
2023-05-08T06:18:15.304Z,4168.00
2023-05-08T06:19:15.260Z,4176.00
2023-05-08T06:20:15.266Z,4184.00
2023-05-08T06:21:15.184Z,4176.00
2023-05-08T06:22:15.145Z,4176.00
2023-05-08T06:23:15.121Z,4192.00
2023-05-08T06:24:15.124Z,4192.00
2023-05-08T06:25:15.287Z,4208.00
2023-05-08T06:26:15.010Z,4160.00
2023-05-08T06:27:14.973Z,4168.00
2023-05-08T06:28:14.950Z,4188.00
2023-05-08T06:29:14.917Z,4204.00
2023-05-08T06:30:14.901Z,4184.00
2023-05-08T06:31:14.952Z,4176.00
2023-05-08T06:32:14.806Z,4156.00
2023-05-08T06:33:14.779Z,4168.00
2023-05-08T06:34:14.743Z,4172.00
2023-05-08T06:35:14.817Z,4156.00
2023-05-08T06:36:14.682Z,4148.00
2023-05-08T06:37:14.700Z,4180.00
2023-05-08T06:38:14.623Z,4172.00
2023-05-08T06:39:14.579Z,4168.00
2023-05-08T06:40:14.615Z,4160.00
2023-05-08T06:41:15.441Z,4212.00
2023-05-08T06:42:14.557Z,4180.00
2023-05-08T06:43:14.444Z,4172.00
2023-05-08T06:44:14.399Z,4160.00
2023-05-08T06:45:14.566Z,4160.00
2023-05-08T06:46:14.444Z,4148.00
2023-05-08T06:47:14.308Z,4132.00
2023-05-08T06:48:14.270Z,4128.00
2023-05-08T06:49:14.243Z,4136.00
2023-05-08T06:50:14.208Z,4128.00
2023-05-08T06:51:14.164Z,4144.00
2023-05-08T06:52:14.208Z,4160.00
2023-05-08T06:53:14.105Z,4136.00
2023-05-08T06:54:14.078Z,4128.00
2023-05-08T06:55:14.232Z,4132.00
2023-05-08T06:56:14.016Z,4140.00
2023-05-08T06:57:14.033Z,4140.00
2023-05-08T06:58:13.933Z,4140.00
2023-05-08T06:59:13.898Z,4140.00
2023-05-08T07:00:13.871Z,4136.00
2023-05-08T07:01:13.877Z,4128.00
2023-05-08T07:02:13.795Z,4132.00
2023-05-08T07:03:14.010Z,4124.00
2023-05-08T07:04:13.779Z,4152.00
2023-05-08T07:05:14.005Z,4144.00
2023-05-08T07:06:13.693Z,4144.00
2023-05-08T07:07:13.629Z,4140.00
2023-05-08T07:08:13.601Z,4140.00
2023-05-08T07:09:13.718Z,4132.00
2023-05-08T07:10:13.540Z,4136.00
2023-05-08T07:11:13.503Z,4132.00
2023-05-08T07:12:13.463Z,4116.00
2023-05-08T07:13:13.452Z,4124.00
2023-05-08T07:14:13.396Z,4132.00
2023-05-08T07:15:24.750Z,4120.00
2023-05-08T07:16:13.403Z,4108.00
2023-05-08T07:17:13.313Z,4112.00
2023-05-08T07:18:13.319Z,4092.00
2023-05-08T07:19:13.244Z,4084.00
2023-05-08T07:20:13.208Z,4068.00
2023-05-08T07:21:13.222Z,4072.00
2023-05-08T07:22:13.175Z,4064.00
2023-05-08T07:23:13.118Z,4064.00
2023-05-08T07:24:13.176Z,4064.00
2023-05-08T07:25:13.257Z,4064.00
2023-05-08T07:26:13.008Z,4056.00
2023-05-08T07:27:13.034Z,4040.00
2023-05-08T07:28:12.938Z,4036.00
2023-05-08T07:29:12.909Z,4044.00
2023-05-08T07:30:12.868Z,4036.00
2023-05-08T07:31:12.877Z,4028.00
2023-05-08T07:32:12.816Z,4024.00
2023-05-08T07:33:12.820Z,4024.00
2023-05-08T07:34:12.749Z,4028.00
2023-05-08T07:35:13.052Z,4032.00
2023-05-08T07:36:12.676Z,4024.00
2023-05-08T07:37:12.661Z,4028.00
2023-05-08T07:38:12.608Z,4024.00
2023-05-08T07:39:12.623Z,4020.00
2023-05-08T07:40:12.560Z,4016.00
2023-05-08T07:41:12.647Z,4016.00
2023-05-08T07:42:12.476Z,4020.00
2023-05-08T07:43:12.451Z,4016.00
2023-05-08T07:44:12.425Z,4016.00
2023-05-08T07:45:12.769Z,4004.00
2023-05-08T07:46:12.389Z,4012.00
2023-05-08T07:47:12.376Z,4012.00
2023-05-08T07:48:12.355Z,4004.00
2023-05-08T07:49:12.277Z,4000.00
2023-05-08T07:50:12.214Z,4004.00
2023-05-08T07:51:12.268Z,4000.00
2023-05-08T07:52:12.142Z,4004.00
2023-05-08T07:53:12.130Z,3988.00
2023-05-08T07:54:12.090Z,3984.00
2023-05-08T07:55:12.201Z,3988.00
2023-05-08T07:56:12.102Z,3996.00
2023-05-08T07:57:12.040Z,3980.00
2023-05-08T07:58:11.956Z,3976.00
2023-05-08T07:59:11.924Z,3988.00
2023-05-08T08:00:11.919Z,3984.00
2023-05-08T08:01:11.852Z,3996.00
2023-05-08T08:02:11.893Z,3984.00
2023-05-08T08:03:12.043Z,3992.00
2023-05-08T08:04:14.727Z,3992.00
2023-05-08T08:05:12.108Z,3996.00
2023-05-08T08:06:11.683Z,3980.00
2023-05-08T08:07:11.674Z,3968.00
2023-05-08T08:08:11.626Z,3964.00
2023-05-08T08:09:11.644Z,3976.00
2023-05-08T08:10:11.589Z,3984.00
2023-05-08T08:11:11.516Z,3984.00
2023-05-08T08:12:11.512Z,3976.00
2023-05-08T08:13:11.472Z,3976.00
2023-05-08T08:14:11.432Z,3980.00
2023-05-08T08:15:11.699Z,3984.00
2023-05-08T08:16:11.368Z,3984.00
2023-05-08T08:17:11.548Z,3972.00
2023-05-08T08:18:11.440Z,3964.00
2023-05-08T08:19:11.332Z,3960.00
2023-05-08T08:20:11.244Z,3956.00
2023-05-08T08:21:11.203Z,3948.00
2023-05-08T08:22:11.170Z,3956.00
2023-05-08T08:23:11.129Z,3960.00
2023-05-08T08:24:11.166Z,3952.00
2023-05-08T08:25:11.269Z,3956.00
2023-05-08T08:26:11.036Z,3940.00
2023-05-08T08:27:11.010Z,3956.00
2023-05-08T08:28:10.980Z,3948.00
2023-05-08T08:29:10.943Z,3920.00
2023-05-08T08:30:17.702Z,3920.00
2023-05-08T08:31:10.912Z,3924.00
2023-05-08T08:32:10.847Z,3936.00
2023-05-08T08:33:10.850Z,3928.00
2023-05-08T08:34:10.860Z,3932.00
2023-05-08T08:35:10.874Z,3908.00
2023-05-08T08:36:10.786Z,3916.00
2023-05-08T08:37:10.684Z,3920.00
2023-05-08T08:38:10.661Z,3932.00
2023-05-08T08:39:12.512Z,3908.00
2023-05-08T08:40:10.603Z,3912.00
2023-05-08T08:41:10.560Z,3904.00
2023-05-08T08:42:10.588Z,3900.00
2023-05-08T08:43:10.509Z,3908.00
2023-05-08T08:44:10.465Z,3912.00
2023-05-08T08:45:10.443Z,3896.00
2023-05-08T08:46:10.445Z,3884.00
2023-05-08T08:47:10.363Z,3896.00
2023-05-08T08:48:10.411Z,3900.00
2023-05-08T08:49:10.316Z,3892.00
2023-05-08T08:50:12.778Z,3876.00
2023-05-08T08:51:10.253Z,3880.00
2023-05-08T08:52:10.204Z,3872.00
2023-05-08T08:53:10.173Z,3884.00
2023-05-08T08:54:10.186Z,3892.00
2023-05-08T08:55:10.102Z,3876.00
2023-05-08T08:56:10.090Z,3864.00
2023-05-08T08:57:10.041Z,3856.00
2023-05-08T08:58:10.749Z,3852.00
2023-05-08T08:59:09.973Z,3852.00
2023-05-08T09:00:10.016Z,3860.00
2023-05-08T09:01:09.928Z,3864.00
2023-05-08T09:02:09.997Z,3860.00
2023-05-08T09:03:09.889Z,3848.00
2023-05-08T09:04:09.942Z,3832.00
2023-05-08T09:05:09.790Z,3848.00
2023-05-08T09:06:09.904Z,3844.00
2023-05-08T09:07:09.729Z,3864.00
2023-05-08T09:08:10.248Z,3852.00
2023-05-08T09:09:09.680Z,3852.00
2023-05-08T09:10:09.700Z,3852.00
2023-05-08T09:11:09.622Z,3848.00
2023-05-08T09:12:09.629Z,3852.00
2023-05-08T09:13:09.554Z,3860.00
2023-05-08T09:14:09.498Z,3840.00
2023-05-08T09:15:09.477Z,3860.00
2023-05-08T09:16:09.598Z,3848.00
2023-05-08T09:17:09.468Z,3840.00
2023-05-08T09:18:09.456Z,3836.00
2023-05-08T09:19:09.352Z,3840.00
2023-05-08T09:20:09.311Z,3852.00
2023-05-08T09:21:09.317Z,3844.00
2023-05-08T09:22:09.375Z,3840.00
2023-05-08T09:23:09.264Z,3832.00
2023-05-08T09:24:09.194Z,3824.00
2023-05-08T09:25:09.151Z,3824.00
2023-05-08T09:26:09.119Z,3824.00
2023-05-08T09:27:09.081Z,3836.00
2023-05-08T09:28:09.112Z,3832.00
2023-05-08T09:29:09.025Z,3824.00
2023-05-08T09:30:09.014Z,3820.00
2023-05-08T09:31:08.965Z,3828.00
2023-05-08T09:32:09.012Z,3828.00
2023-05-08T09:33:08.927Z,3824.00
2023-05-08T09:34:08.909Z,3820.00
2023-05-08T09:35:08.837Z,3824.00
2023-05-08T09:36:08.806Z,3828.00
2023-05-08T09:37:08.781Z,3816.00
2023-05-08T09:38:08.817Z,3808.00
2023-05-08T09:39:08.714Z,3820.00
2023-05-08T09:40:08.735Z,3820.00
2023-05-08T09:41:08.708Z,3808.00
2023-05-08T09:42:08.617Z,3804.00
2023-05-08T09:43:08.598Z,3800.00
2023-05-08T09:44:08.559Z,3800.00
2023-05-08T09:45:08.532Z,3800.00
2023-05-08T09:46:08.566Z,3812.00
2023-05-08T09:47:08.461Z,3824.00
2023-05-08T09:48:08.477Z,3828.00
2023-05-08T09:49:08.417Z,3808.00
2023-05-08T09:50:08.364Z,3796.00
2023-05-08T09:51:08.331Z,3784.00
2023-05-08T09:52:08.456Z,3788.00
2023-05-08T09:53:08.275Z,3788.00
2023-05-08T09:54:08.345Z,3796.00
2023-05-08T09:55:08.220Z,3796.00
2023-05-08T09:56:08.194Z,3792.00
2023-05-08T09:57:08.143Z,3784.00
2023-05-08T09:58:08.173Z,3780.00
2023-05-08T09:59:08.088Z,3788.00
2023-05-08T10:00:08.070Z,3788.00
2023-05-08T10:01:08.060Z,3780.00
2023-05-08T10:02:07.995Z,3768.00
2023-05-08T10:03:08.794Z,3764.00
2023-05-08T10:04:08.529Z,3768.00
2023-05-08T10:05:07.972Z,3768.00
2023-05-08T10:06:07.864Z,3764.00
2023-05-08T10:07:07.848Z,3780.00
2023-05-08T10:08:07.815Z,3764.00
2023-05-08T10:09:07.777Z,3776.00
2023-05-08T10:10:07.869Z,3784.00
2023-05-08T10:11:07.719Z,3772.00
2023-05-08T10:12:07.710Z,3756.00
2023-05-08T10:13:07.700Z,3732.00
2023-05-08T10:14:07.630Z,3736.00
2023-05-08T10:15:07.588Z,3728.00
2023-05-08T10:16:07.613Z,3712.00
2023-05-08T10:17:07.561Z,3692.00
2023-05-08T10:18:08.406Z,3688.00
2023-05-08T10:19:07.461Z,3672.00
2023-05-08T10:20:07.442Z,3676.00
2023-05-08T10:21:07.418Z,3680.00
2023-05-08T10:22:07.416Z,3688.00
2023-05-08T10:23:07.357Z,3692.00
2023-05-08T10:24:07.322Z,3696.00
2023-05-08T10:25:07.329Z,3688.00
2023-05-08T10:26:07.328Z,3696.00
2023-05-08T10:27:08.002Z,3708.00
2023-05-08T10:28:07.237Z,3728.00
2023-05-08T10:29:07.170Z,3724.00
2023-05-08T10:30:07.121Z,3736.00
2023-05-08T10:31:07.108Z,3740.00
2023-05-08T10:32:07.061Z,3732.00
2023-05-08T10:33:07.065Z,3748.00
2023-05-08T10:34:07.070Z,3748.00
2023-05-08T10:35:07.005Z,3744.00
2023-05-08T10:36:06.966Z,3744.00
2023-05-08T10:37:06.935Z,3744.00
2023-05-08T10:38:06.910Z,3736.00
2023-05-08T10:39:06.873Z,3748.00
2023-05-08T10:40:06.974Z,3748.00
2023-05-08T10:41:06.816Z,3752.00
2023-05-08T10:42:06.923Z,3756.00
2023-05-08T10:43:06.729Z,3740.00
2023-05-08T10:44:06.699Z,3728.00
2023-05-08T10:45:06.663Z,3744.00
2023-05-08T10:46:06.805Z,3752.00
2023-05-08T10:47:06.614Z,3760.00
2023-05-08T10:48:06.636Z,3764.00
2023-05-08T10:49:06.544Z,3768.00
2023-05-08T10:50:06.508Z,3776.00
2023-05-08T10:51:06.494Z,3780.00
2023-05-08T10:52:06.498Z,3780.00
2023-05-08T10:53:06.414Z,3780.00
2023-05-08T10:54:06.387Z,3772.00
2023-05-08T10:55:06.356Z,3756.00
2023-05-08T10:56:06.327Z,3764.00
2023-05-08T10:57:06.308Z,3760.00
2023-05-08T10:58:06.337Z,3756.00
2023-05-08T10:59:06.243Z,3784.00
2023-05-08T11:00:06.298Z,3764.00
2023-05-08T11:01:07.440Z,3764.00
2023-05-08T11:02:07.060Z,3784.00
2023-05-08T11:03:07.205Z,3756.00
2023-05-08T11:04:06.220Z,3744.00
2023-05-08T11:05:06.070Z,3736.00
2023-05-08T11:06:06.036Z,3744.00
2023-05-08T11:07:05.979Z,3752.00
2023-05-08T11:08:05.970Z,3768.00
2023-05-08T11:09:05.931Z,3748.00
2023-05-08T11:10:05.949Z,3796.00
2023-05-08T11:11:05.875Z,3780.00
2023-05-08T11:12:05.826Z,3748.00
2023-05-08T11:13:05.911Z,3784.00
2023-05-08T11:14:05.770Z,3756.00
2023-05-08T11:15:05.760Z,3752.00
2023-05-08T11:16:05.782Z,3748.00
2023-05-08T11:17:05.696Z,3756.00
2023-05-08T11:18:05.698Z,3760.00
2023-05-08T11:19:05.618Z,3764.00
2023-05-08T11:20:05.646Z,3744.00
2023-05-08T11:21:05.557Z,3760.00
2023-05-08T11:22:05.528Z,3760.00
2023-05-08T11:23:05.503Z,3760.00
2023-05-08T11:24:05.464Z,3768.00
2023-05-08T11:25:05.971Z,3768.00
2023-05-08T11:26:05.425Z,3764.00
2023-05-08T11:27:05.374Z,3760.00
2023-05-08T11:28:05.354Z,3756.00
2023-05-08T11:29:05.323Z,3756.00
2023-05-08T11:30:05.293Z,3768.00
2023-05-08T11:31:05.385Z,3756.00
2023-05-08T11:32:05.307Z,3764.00
2023-05-08T11:33:05.517Z,3764.00
2023-05-08T11:34:05.184Z,3768.00
2023-05-08T11:35:05.153Z,3772.00
2023-05-08T11:36:05.117Z,3760.00
2023-05-08T11:37:05.147Z,3748.00
2023-05-08T11:38:05.042Z,3756.00
2023-05-08T11:39:05.033Z,3768.00
2023-05-08T11:40:04.987Z,3756.00
2023-05-08T11:41:05.032Z,3752.00
2023-05-08T11:42:04.940Z,3732.00
2023-05-08T11:43:04.891Z,3724.00
2023-05-08T11:44:04.872Z,3732.00
2023-05-08T11:45:04.844Z,3724.00
2023-05-08T11:46:04.911Z,3732.00
2023-05-08T11:47:04.828Z,3736.00
2023-05-08T11:48:04.780Z,3732.00
2023-05-08T11:49:04.724Z,3744.00
2023-05-08T11:50:04.693Z,3748.00
2023-05-08T11:51:04.653Z,3740.00
2023-05-08T11:52:04.724Z,3732.00
2023-05-08T11:53:04.603Z,3736.00
2023-05-08T11:54:04.568Z,3728.00
2023-05-08T11:55:04.544Z,3724.00
2023-05-08T11:56:04.516Z,3724.00
2023-05-08T11:57:04.477Z,3720.00
2023-05-08T11:58:04.501Z,3724.00
2023-05-08T11:59:04.420Z,3724.00
2023-05-08T12:00:04.388Z,3712.00
2023-05-08T12:01:04.460Z,3696.00
2023-05-08T12:02:09.289Z,3696.00
2023-05-08T12:03:04.391Z,3700.00
2023-05-08T12:04:04.442Z,3692.00
2023-05-08T12:05:04.328Z,3696.00
2023-05-08T12:06:04.205Z,3696.00
2023-05-08T12:07:04.208Z,3700.00
2023-05-08T12:08:04.159Z,3684.00
2023-05-08T12:09:04.125Z,3684.00
2023-05-08T12:10:04.170Z,3684.00
2023-05-08T12:11:04.072Z,3680.00
2023-05-08T12:12:04.046Z,3688.00
2023-05-08T12:13:04.034Z,3692.00
2023-05-08T12:14:03.985Z,3696.00
2023-05-08T12:15:03.951Z,3688.00
2023-05-08T12:16:04.128Z,3680.00
2023-05-08T12:17:03.969Z,3676.00
2023-05-08T12:18:03.893Z,3672.00
2023-05-08T12:19:03.823Z,3676.00
2023-05-08T12:20:03.791Z,3676.00
2023-05-08T12:21:03.775Z,3688.00
2023-05-08T12:22:03.792Z,3688.00
2023-05-08T12:23:03.710Z,3692.00